Time;durP1;ratioP1;P1;durP2;ratioP2;P2;SDS_P1;SDS_P2;PMS_P1;PMS_P2;Temp;Humidity;BMP_temperature;BMP_pressure;BME280_temperature;BME280_humidity;BME280_pressure;Samples;Min_cycle;Max_cycle;Signal;HPM_P1;HPM_P2
2022/12/26 00:00:00;;;;;;;1.4;1.4;;;;;;;9.5;100.0;100790;;;;
2022/12/26 00:01:04;;;;;;;1.4;1.4;;;;;;;9.5;100.0;100790;;;;
2022/12/26 00:02:00;;;;;;;1.4;1.4;;;;;;;9.5;100.0;100780;;;;
2022/12/26 00:03:01;;;;;;;1.4;1.4;;;;;;;9.5;100.0;100780;;;;
2022/12/26 00:04:01;;;;;;;1.4;1.4;;;;;;;9.4;100.0;100790;;;;
2022/12/26 00:05:00;;;;;;;1.4;1.4;;;;;;;9.4;100.0;100790;;;;
2022/12/26 00:06:00;;;;;;;1.4;1.4;;;;;;;9.4;100.0;100800;;;;
2022/12/26 00:07:00;;;;;;;1.4;1.4;;;;;;;9.4;100.0;100800;;;;
2022/12/26 00:08:00;;;;;;;1.4;1.4;;;;;;;9.4;100.0;100790;;;;
2022/12/26 00:09:01;;;;;;;1.4;1.4;;;;;;;9.4;100.0;100790;;;;
2022/12/26 00:10:00;;;;;;;1.4;1.4;;;;;;;9.4;100.0;100800;;;;
2022/12/26 00:11:00;;;;;;;1.4;1.4;;;;;;;9.4;100.0;100800;;;;
2022/12/26 00:12:00;;;;;;;1.4;1.4;;;;;;;9.4;100.0;100800;;;;
2022/12/26 00:13:10;;;;;;;1.4;1.4;;;;;;;9.4;100.0;100800;;;;
2022/12/26 00:14:02;;;;;;;1.4;1.4;;;;;;;9.5;100.0;100790;;;;
2022/12/26 00:15:01;;;;;;;1.4;1.4;;;;;;;9.5;100.0;100790;;;;
2022/12/26 00:16:10;;;;;;;1.4;1.4;;;;;;;9.3;100.0;100790;;;;
2022/12/26 00:17:00;;;;;;;1.4;1.4;;;;;;;9.3;100.0;100790;;;;
2022/12/26 00:18:00;;;;;;;1.4;1.4;;;;;;;9.3;100.0;100790;;;;
2022/12/26 00:19:02;;;;;;;1.4;1.4;;;;;;;9.3;100.0;100790;;;;
2022/12/26 00:20:00;;;;;;;1.4;1.4;;;;;;;9.2;100.0;100790;;;;
2022/12/26 00:21:00;;;;;;;1.4;1.4;;;;;;;9.2;100.0;100790;;;;
2022/12/26 00:22:00;;;;;;;1.4;1.4;;;;;;;9.3;100.0;100800;;;;
2022/12/26 00:23:00;;;;;;;1.4;1.4;;;;;;;9.3;100.0;100800;;;;
2022/12/26 00:24:01;;;;;;;1.4;1.4;;;;;;;9.3;100.0;100810;;;;
2022/12/26 00:25:01;;;;;;;1.4;1.4;;;;;;;9.3;100.0;100810;;;;
2022/12/26 00:26:02;;;;;;;1.4;1.4;;;;;;;9.2;100.0;100800;;;;
2022/12/26 00:27:00;;;;;;;1.4;1.4;;;;;;;9.2;100.0;100800;;;;
2022/12/26 00:28:00;;;;;;;1.4;1.4;;;;;;;9.3;100.0;100800;;;;
2022/12/26 00:29:00;;;;;;;1.4;1.4;;;;;;;9.3;100.0;100800;;;;
2022/12/26 00:30:00;;;;;;;1.4;1.4;;;;;;;9.3;100.0;100820;;;;
2022/12/26 00:31:02;;;;;;;1.4;1.4;;;;;;;9.3;100.0;100820;;;;
2022/12/26 00:32:00;;;;;;;1.4;1.4;;;;;;;9.4;100.0;100820;;;;
2022/12/26 00:33:00;;;;;;;0.9;0.9;;;;;;;9.4;100.0;100820;;;;
2022/12/26 00:34:01;;;;;;;0.9;0.9;;;;;;;9.4;100.0;100820;;;;
2022/12/26 00:35:00;;;;;;;0.9;0.9;;;;;;;9.4;100.0;100820;;;;
2022/12/26 00:36:01;;;;;;;0.9;0.9;;;;;;;9.4;100.0;100830;;;;
2022/12/26 00:37:00;;;;;;;0.9;0.9;;;;;;;9.4;100.0;100830;;;;
2022/12/26 00:38:00;;;;;;;0.9;0.9;;;;;;;9.5;100.0;100840;;;;
2022/12/26 00:39:01;;;;;;;0.9;0.9;;;;;;;9.5;100.0;100840;;;;
2022/12/26 00:40:00;;;;;;;0.9;0.9;;;;;;;9.4;100.0;100840;;;;
2022/12/26 00:41:00;;;;;;;0.9;0.9;;;;;;;9.4;100.0;100840;;;;
2022/12/26 00:42:00;;;;;;;0.9;0.9;;;;;;;9.4;100.0;100840;;;;
2022/12/26 00:43:00;;;;;;;0.9;0.9;;;;;;;9.4;100.0;100840;;;;
2022/12/26 00:44:00;;;;;;;0.9;0.9;;;;;;;9.4;100.0;100850;;;;
2022/12/26 00:45:00;;;;;;;0.9;0.9;;;;;;;9.4;100.0;100850;;;;
2022/12/26 00:46:00;;;;;;;0.9;0.9;;;;;;;9.4;100.0;100860;;;;
2022/12/26 00:47:00;;;;;;;0.9;0.9;;;;;;;9.4;100.0;100860;;;;
2022/12/26 00:48:00;;;;;;;0.9;0.9;;;;;;;9.5;100.0;100840;;;;
2022/12/26 00:49:00;;;;;;;0.9;0.9;;;;;;;9.5;100.0;100840;;;;
2022/12/26 00:50:10;;;;;;;0.9;0.9;;;;;;;9.5;100.0;100830;;;;
2022/12/26 00:51:00;;;;;;;0.9;0.9;;;;;;;9.5;100.0;100830;;;;
2022/12/26 00:52:00;;;;;;;0.9;0.9;;;;;;;9.6;100.0;100850;;;;
2022/12/26 00:53:00;;;;;;;1.8;1.7;;;;;;;9.6;100.0;100850;;;;
2022/12/26 00:54:00;;;;;;;1.8;1.7;;;;;;;9.5;100.0;100850;;;;
2022/12/26 00:55:00;;;;;;;1.8;1.7;;;;;;;9.5;100.0;100850;;;;
2022/12/26 00:56:01;;;;;;;1.8;1.7;;;;;;;9.6;100.0;100850;;;;
2022/12/26 00:57:00;;;;;;;1.8;1.7;;;;;;;9.6;100.0;100850;;;;
2022/12/26 00:58:00;;;;;;;1.8;1.7;;;;;;;9.6;100.0;100850;;;;
2022/12/26 00:59:00;;;;;;;1.8;1.7;;;;;;;9.6;100.0;100850;;;;
2022/12/26 01:00:00;;;;;;;1.8;1.7;;;;;;;9.6;100.0;100850;;;;
2022/12/26 01:01:05;;;;;;;1.8;1.7;;;;;;;9.6;100.0;100850;;;;
2022/12/26 01:02:36;;;;;;;1.8;1.7;;;;;;;9.6;100.0;100860;;;;
2022/12/26 01:03:01;;;;;;;1.8;1.7;;;;;;;9.6;100.0;100860;;;;
2022/12/26 01:04:00;;;;;;;1.8;1.7;;;;;;;9.5;100.0;100860;;;;
2022/12/26 01:05:00;;;;;;;1.8;1.7;;;;;;;9.5;100.0;100860;;;;
2022/12/26 01:06:02;;;;;;;1.8;1.7;;;;;;;9.6;100.0;100850;;;;
2022/12/26 01:07:00;;;;;;;1.8;1.7;;;;;;;9.6;100.0;100850;;;;
2022/12/26 01:08:10;;;;;;;1.8;1.7;;;;;;;9.5;100.0;100860;;;;
2022/12/26 01:09:00;;;;;;;1.8;1.7;;;;;;;9.5;100.0;100860;;;;
2022/12/26 01:10:00;;;;;;;1.8;1.7;;;;;;;9.5;100.0;100850;;;;
2022/12/26 01:11:04;;;;;;;1.8;1.7;;;;;;;9.5;100.0;100850;;;;
2022/12/26 01:12:00;;;;;;;1.8;1.7;;;;;;;9.5;100.0;100840;;;;
2022/12/26 01:13:00;;;;;;;1.0;1.0;;;;;;;9.5;100.0;100840;;;;
2022/12/26 01:14:00;;;;;;;1.0;1.0;;;;;;;9.5;100.0;100840;;;;
2022/12/26 01:15:00;;;;;;;1.0;1.0;;;;;;;9.5;100.0;100840;;;;
2022/12/26 01:16:00;;;;;;;1.0;1.0;;;;;;;9.5;100.0;100840;;;;
2022/12/26 01:17:00;;;;;;;1.0;1.0;;;;;;;9.5;100.0;100840;;;;
2022/12/26 01:18:01;;;;;;;1.0;1.0;;;;;;;9.5;100.0;100850;;;;
2022/12/26 01:19:01;;;;;;;1.0;1.0;;;;;;;9.5;100.0;100850;;;;
2022/12/26 01:20:01;;;;;;;1.0;1.0;;;;;;;9.4;100.0;100860;;;;
2022/12/26 01:21:02;;;;;;;1.0;1.0;;;;;;;9.4;100.0;100860;;;;
2022/12/26 01:22:00;;;;;;;1.0;1.0;;;;;;;9.5;100.0;100860;;;;
2022/12/26 01:23:00;;;;;;;1.0;1.0;;;;;;;9.5;100.0;100860;;;;
2022/12/26 01:24:00;;;;;;;1.0;1.0;;;;;;;9.5;100.0;100860;;;;
2022/12/26 01:25:00;;;;;;;1.0;1.0;;;;;;;9.5;100.0;100860;;;;
2022/12/26 01:26:10;;;;;;;1.0;1.0;;;;;;;9.4;100.0;100870;;;;
2022/12/26 01:27:00;;;;;;;1.0;1.0;;;;;;;9.4;100.0;100870;;;;
2022/12/26 01:28:00;;;;;;;1.0;1.0;;;;;;;9.4;100.0;100870;;;;
2022/12/26 01:29:00;;;;;;;1.0;1.0;;;;;;;9.4;100.0;100870;;;;
2022/12/26 01:30:00;;;;;;;1.0;1.0;;;;;;;9.4;100.0;100860;;;;
2022/12/26 01:31:01;;;;;;;1.0;1.0;;;;;;;9.4;100.0;100860;;;;
2022/12/26 01:32:01;;;;;;;1.0;1.0;;;;;;;9.4;100.0;100860;;;;
2022/12/26 01:33:00;;;;;;;1.0;1.0;;;;;;;9.4;100.0;100860;;;;
2022/12/26 01:34:00;;;;;;;1.0;1.0;;;;;;;9.4;100.0;100860;;;;
2022/12/26 01:35:00;;;;;;;1.0;1.0;;;;;;;9.4;100.0;100860;;;;
2022/12/26 01:36:00;;;;;;;1.0;1.0;;;;;;;9.3;100.0;100860;;;;
2022/12/26 01:37:00;;;;;;;1.0;1.0;;;;;;;9.3;100.0;100860;;;;
2022/12/26 01:38:00;;;;;;;1.0;1.0;;;;;;;9.4;100.0;100860;;;;
2022/12/26 01:39:00;;;;;;;1.0;1.0;;;;;;;9.4;100.0;100860;;;;
2022/12/26 01:40:00;;;;;;;1.0;1.0;;;;;;;9.4;100.0;100860;;;;
2022/12/26 01:42:00;;;;;;;1.0;1.0;;;;;;;9.4;100.0;100850;;;;
2022/12/26 01:43:00;;;;;;;1.0;1.0;;;;;;;9.4;100.0;100850;;;;
2022/12/26 01:44:02;;;;;;;1.0;1.0;;;;;;;9.4;100.0;100850;;;;
2022/12/26 01:45:10;;;;;;;1.0;1.0;;;;;;;9.4;100.0;100850;;;;
2022/12/26 01:46:00;;;;;;;1.0;1.0;;;;;;;9.4;100.0;100850;;;;
2022/12/26 01:47:00;;;;;;;1.0;1.0;;;;;;;9.4;100.0;100850;;;;
2022/12/26 01:48:11;;;;;;;1.0;1.0;;;;;;;9.3;100.0;100860;;;;
2022/12/26 01:49:05;;;;;;;1.0;1.0;;;;;;;9.3;100.0;100860;;;;
2022/12/26 01:50:01;;;;;;;1.0;1.0;;;;;;;9.3;100.0;100860;;;;
2022/12/26 01:51:02;;;;;;;1.0;1.0;;;;;;;9.3;100.0;100860;;;;
2022/12/26 01:52:03;;;;;;;1.0;1.0;;;;;;;9.3;100.0;100860;;;;
2022/12/26 01:53:04;;;;;;;1.0;1.0;;;;;;;9.3;100.0;100860;;;;
2022/12/26 01:54:13;;;;;;;1.0;1.0;;;;;;;9.3;100.0;100860;;;;
2022/12/26 01:55:02;;;;;;;1.0;1.0;;;;;;;9.3;100.0;100860;;;;
2022/12/26 01:56:04;;;;;;;1.0;1.0;;;;;;;9.3;100.0;100860;;;;
2022/12/26 01:57:03;;;;;;;1.0;1.0;;;;;;;9.3;100.0;100860;;;;
2022/12/26 01:58:03;;;;;;;1.0;1.0;;;;;;;9.3;100.0;100870;;;;
2022/12/26 01:59:04;;;;;;;1.0;1.0;;;;;;;9.3;100.0;100870;;;;
2022/12/26 02:00:00;;;;;;;1.0;1.0;;;;;;;9.2;100.0;100870;;;;
2022/12/26 02:01:02;;;;;;;1.0;1.0;;;;;;;9.2;100.0;100870;;;;
2022/12/26 02:02:01;;;;;;;1.0;1.0;;;;;;;9.2;100.0;100870;;;;
2022/12/26 02:06:01;;;;;;;1.0;1.0;;;;;;;9.2;100.0;100870;;;;
2022/12/26 02:07:03;;;;;;;1.0;1.0;;;;;;;9.2;100.0;100870;;;;
2022/12/26 02:08:10;;;;;;;1.0;1.0;;;;;;;9.2;100.0;100860;;;;
2022/12/26 02:09:01;;;;;;;1.0;1.0;;;;;;;9.2;100.0;100860;;;;
2022/12/26 02:10:01;;;;;;;1.0;1.0;;;;;;;9.2;100.0;100870;;;;
2022/12/26 02:11:10;;;;;;;1.0;1.0;;;;;;;9.2;100.0;100870;;;;
2022/12/26 02:12:16;;;;;;;1.2;1.2;;;;;;;9.3;100.0;100870;;;;
2022/12/26 02:13:01;;;;;;;1.2;1.2;;;;;;;9.3;100.0;100870;;;;
2022/12/26 02:14:00;;;;;;;1.2;1.2;;;;;;;9.3;100.0;100870;;;;
2022/12/26 02:15:01;;;;;;;1.2;1.2;;;;;;;9.3;100.0;100870;;;;
2022/12/26 02:16:01;;;;;;;1.2;1.2;;;;;;;9.3;100.0;100870;;;;
2022/12/26 02:17:01;;;;;;;1.2;1.2;;;;;;;9.3;100.0;100870;;;;
2022/12/26 02:18:00;;;;;;;1.2;1.2;;;;;;;9.4;100.0;100870;;;;
2022/12/26 02:19:01;;;;;;;1.2;1.2;;;;;;;9.4;100.0;100870;;;;
2022/12/26 02:20:09;;;;;;;1.2;1.2;;;;;;;9.3;100.0;100870;;;;
2022/12/26 02:21:10;;;;;;;1.2;1.2;;;;;;;9.3;100.0;100870;;;;
2022/12/26 02:22:10;;;;;;;1.2;1.2;;;;;;;9.3;100.0;100870;;;;
2022/12/26 02:23:10;;;;;;;1.2;1.2;;;;;;;9.3;100.0;100870;;;;
2022/12/26 02:24:10;;;;;;;1.2;1.2;;;;;;;9.3;100.0;100860;;;;
2022/12/26 02:25:10;;;;;;;1.2;1.2;;;;;;;9.3;100.0;100860;;;;
2022/12/26 02:26:10;;;;;;;1.2;1.2;;;;;;;9.2;100.0;100860;;;;
2022/12/26 02:27:01;;;;;;;1.2;1.2;;;;;;;9.2;100.0;100860;;;;
2022/12/26 02:28:10;;;;;;;1.2;1.2;;;;;;;9.4;100.0;100870;;;;
2022/12/26 02:29:10;;;;;;;1.2;1.2;;;;;;;9.4;100.0;100870;;;;
2022/12/26 02:30:01;;;;;;;1.2;1.2;;;;;;;9.3;100.0;100870;;;;
2022/12/26 02:31:03;;;;;;;1.2;1.2;;;;;;;9.3;100.0;100870;;;;
2022/12/26 02:32:08;;;;;;;2.1;1.9;;;;;;;9.3;100.0;100870;;;;
2022/12/26 02:33:03;;;;;;;2.1;1.9;;;;;;;9.3;100.0;100870;;;;
2022/12/26 02:34:10;;;;;;;2.1;1.9;;;;;;;9.3;100.0;100870;;;;
2022/12/26 02:35:00;;;;;;;2.1;1.9;;;;;;;9.3;100.0;100870;;;;
2022/12/26 02:36:08;;;;;;;2.1;1.9;;;;;;;9.2;100.0;100870;;;;
2022/12/26 02:37:07;;;;;;;2.1;1.9;;;;;;;9.2;100.0;100870;;;;
2022/12/26 02:38:10;;;;;;;2.1;1.9;;;;;;;9.2;100.0;100870;;;;
2022/12/26 02:39:20;;;;;;;2.1;1.9;;;;;;;9.2;100.0;100870;;;;
2022/12/26 02:40:00;;;;;;;2.1;1.9;;;;;;;9.3;100.0;100870;;;;
2022/12/26 02:41:10;;;;;;;2.1;1.9;;;;;;;9.3;100.0;100870;;;;
2022/12/26 02:42:01;;;;;;;2.1;1.9;;;;;;;9.3;100.0;100860;;;;
2022/12/26 02:43:04;;;;;;;2.1;1.9;;;;;;;9.3;100.0;100860;;;;
2022/12/26 02:47:10;;;;;;;2.1;1.9;;;;;;;9.3;100.0;100870;;;;
2022/12/26 02:48:10;;;;;;;2.1;1.9;;;;;;;9.2;100.0;100870;;;;
2022/12/26 02:49:10;;;;;;;2.1;1.9;;;;;;;9.2;100.0;100870;;;;
2022/12/26 03:13:10;;;;;;;1.5;1.5;;;;;;;9.3;100.0;100870;;;;
2022/12/26 03:14:06;;;;;;;1.5;1.5;;;;;;;9.3;100.0;100870;;;;
2022/12/26 03:15:02;;;;;;;1.5;1.5;;;;;;;9.3;100.0;100870;;;;
2022/12/26 03:18:03;;;;;;;1.5;1.5;;;;;;;9.4;100.0;100870;;;;
2022/12/26 03:19:02;;;;;;;1.5;1.5;;;;;;;9.4;100.0;100870;;;;
2022/12/26 03:20:04;;;;;;;1.5;1.5;;;;;;;9.3;100.0;100870;;;;
2022/12/26 03:21:01;;;;;;;1.5;1.5;;;;;;;9.3;100.0;100870;;;;
2022/12/26 03:22:29;;;;;;;1.5;1.5;;;;;;;9.2;100.0;100870;;;;
2022/12/26 03:23:10;;;;;;;1.5;1.5;;;;;;;9.2;100.0;100870;;;;
2022/12/26 03:24:00;;;;;;;1.5;1.5;;;;;;;9.2;100.0;100880;;;;
2022/12/26 03:27:00;;;;;;;1.5;1.5;;;;;;;9.3;100.0;100880;;;;
2022/12/26 03:28:00;;;;;;;1.5;1.5;;;;;;;9.4;100.0;100880;;;;
2022/12/26 03:31:03;;;;;;;1.5;1.5;;;;;;;9.3;100.0;100880;;;;
2022/12/26 03:32:01;;;;;;;1.0;1.0;;;;;;;9.3;100.0;100880;;;;
2022/12/26 03:33:00;;;;;;;1.0;1.0;;;;;;;9.3;100.0;100880;;;;
2022/12/26 03:35:00;;;;;;;1.0;1.0;;;;;;;9.3;100.0;100870;;;;
2022/12/26 03:36:01;;;;;;;1.0;1.0;;;;;;;9.3;100.0;100860;;;;
2022/12/26 03:37:10;;;;;;;1.0;1.0;;;;;;;9.3;100.0;100860;;;;
2022/12/26 03:38:06;;;;;;;1.0;1.0;;;;;;;9.2;100.0;100860;;;;
2022/12/26 03:39:10;;;;;;;1.0;1.0;;;;;;;9.2;100.0;100860;;;;
2022/12/26 04:19:27;;;;;;;0.9;0.9;;;;;;;9.1;100.0;100910;;;;
2022/12/26 04:20:12;;;;;;;0.9;0.9;;;;;;;9.1;100.0;100900;;;;
2022/12/26 04:41:34;;;;;;;0.9;0.9;;;;;;;9.1;100.0;100900;;;;
2022/12/26 04:44:07;;;;;;;1.3;1.3;;;;;;;8.9;100.0;100910;;;;
2022/12/26 04:45:01;;;;;;;1.3;1.3;;;;;;;8.9;100.0;100910;;;;
2022/12/26 04:46:01;;;;;;;1.3;1.3;;;;;;;8.9;100.0;100910;;;;
2022/12/26 04:47:00;;;;;;;1.3;1.3;;;;;;;8.9;100.0;100910;;;;
2022/12/26 04:50:14;;;;;;;1.3;1.3;;;;;;;8.8;100.0;100900;;;;
2022/12/26 04:51:00;;;;;;;1.3;1.3;;;;;;;8.8;100.0;100900;;;;
2022/12/26 04:52:02;;;;;;;1.2;1.2;;;;;;;8.8;100.0;100890;;;;
2022/12/26 04:53:01;;;;;;;1.2;1.2;;;;;;;8.8;100.0;100890;;;;
2022/12/26 04:54:00;;;;;;;1.2;1.2;;;;;;;8.8;100.0;100880;;;;
2022/12/26 04:55:00;;;;;;;1.2;1.2;;;;;;;8.8;100.0;100880;;;;
2022/12/26 04:56:00;;;;;;;1.2;1.2;;;;;;;8.8;100.0;100880;;;;
2022/12/26 04:57:00;;;;;;;1.2;1.2;;;;;;;8.8;100.0;100880;;;;
2022/12/26 04:58:00;;;;;;;1.2;1.2;;;;;;;8.8;100.0;100870;;;;
2022/12/26 04:59:00;;;;;;;1.2;1.2;;;;;;;8.8;100.0;100870;;;;
2022/12/26 05:00:00;;;;;;;1.2;1.2;;;;;;;8.8;100.0;100870;;;;
2022/12/26 05:10:01;;;;;;;1.2;1.2;;;;;;;8.7;100.0;100890;;;;
2022/12/26 05:11:00;;;;;;;1.2;1.2;;;;;;;8.7;100.0;100890;;;;
2022/12/26 05:12:03;;;;;;;1.0;1.0;;;;;;;8.7;100.0;100890;;;;
2022/12/26 05:13:00;;;;;;;1.0;1.0;;;;;;;8.7;100.0;100890;;;;
2022/12/26 05:14:00;;;;;;;1.0;1.0;;;;;;;8.7;100.0;100890;;;;
2022/12/26 05:15:00;;;;;;;1.0;1.0;;;;;;;8.7;100.0;100890;;;;
2022/12/26 05:29:02;;;;;;;1.0;1.0;;;;;;;8.5;100.0;100910;;;;
2022/12/26 05:30:00;;;;;;;1.0;1.0;;;;;;;8.5;100.0;100900;;;;
2022/12/26 05:31:01;;;;;;;1.0;1.0;;;;;;;8.5;100.0;100900;;;;
2022/12/26 05:32:00;;;;;;;1.5;1.5;;;;;;;8.6;100.0;100900;;;;
2022/12/26 05:34:09;;;;;;;1.5;1.5;;;;;;;8.6;100.0;100900;;;;
2022/12/26 05:35:00;;;;;;;1.5;1.5;;;;;;;8.6;100.0;100900;;;;
2022/12/26 05:36:00;;;;;;;1.5;1.5;;;;;;;8.5;100.0;100900;;;;
2022/12/26 05:37:00;;;;;;;1.5;1.5;;;;;;;8.5;100.0;100900;;;;
2022/12/26 05:38:01;;;;;;;1.5;1.5;;;;;;;8.5;100.0;100900;;;;
2022/12/26 05:39:00;;;;;;;1.5;1.5;;;;;;;8.5;100.0;100900;;;;
2022/12/26 05:40:00;;;;;;;1.5;1.5;;;;;;;8.5;100.0;100900;;;;
2022/12/26 05:41:00;;;;;;;1.5;1.5;;;;;;;8.5;100.0;100900;;;;
2022/12/26 05:42:00;;;;;;;1.5;1.5;;;;;;;8.5;100.0;100890;;;;
2022/12/26 05:43:00;;;;;;;1.5;1.5;;;;;;;8.5;100.0;100890;;;;
2022/12/26 05:44:00;;;;;;;1.5;1.5;;;;;;;8.5;100.0;100890;;;;
2022/12/26 05:45:00;;;;;;;1.5;1.5;;;;;;;8.5;100.0;100890;;;;
2022/12/26 05:46:01;;;;;;;1.5;1.5;;;;;;;8.5;100.0;100890;;;;
2022/12/26 05:47:00;;;;;;;1.5;1.5;;;;;;;8.5;100.0;100890;;;;
2022/12/26 05:48:01;;;;;;;1.5;1.5;;;;;;;8.5;100.0;100890;;;;
2022/12/26 05:49:00;;;;;;;1.5;1.5;;;;;;;8.5;100.0;100890;;;;
2022/12/26 05:50:00;;;;;;;1.5;1.5;;;;;;;8.5;100.0;100880;;;;
2022/12/26 05:51:02;;;;;;;1.5;1.5;;;;;;;8.5;100.0;100880;;;;
2022/12/26 05:52:00;;;;;;;1.1;1.1;;;;;;;8.4;100.0;100870;;;;
2022/12/26 05:53:00;;;;;;;1.1;1.1;;;;;;;8.4;100.0;100870;;;;
2022/12/26 05:54:01;;;;;;;1.1;1.1;;;;;;;8.5;100.0;100860;;;;
2022/12/26 05:55:00;;;;;;;1.1;1.1;;;;;;;8.5;100.0;100860;;;;
2022/12/26 05:56:01;;;;;;;1.1;1.1;;;;;;;8.4;100.0;100860;;;;
2022/12/26 05:57:00;;;;;;;1.1;1.1;;;;;;;8.4;100.0;100860;;;;
2022/12/26 05:58:00;;;;;;;1.1;1.1;;;;;;;8.4;100.0;100860;;;;
2022/12/26 05:59:01;;;;;;;1.1;1.1;;;;;;;8.4;100.0;100860;;;;
2022/12/26 06:00:00;;;;;;;1.1;1.1;;;;;;;8.4;100.0;100850;;;;
2022/12/26 06:01:09;;;;;;;1.1;1.1;;;;;;;8.4;100.0;100850;;;;
2022/12/26 06:02:01;;;;;;;1.1;1.1;;;;;;;8.4;100.0;100860;;;;
2022/12/26 06:03:01;;;;;;;1.1;1.1;;;;;;;8.4;100.0;100860;;;;
2022/12/26 06:04:01;;;;;;;1.1;1.1;;;;;;;8.4;100.0;100860;;;;
2022/12/26 06:05:00;;;;;;;1.1;1.1;;;;;;;8.4;100.0;100860;;;;
2022/12/26 06:06:00;;;;;;;1.1;1.1;;;;;;;8.5;100.0;100860;;;;
2022/12/26 06:07:00;;;;;;;1.1;1.1;;;;;;;8.5;100.0;100860;;;;
2022/12/26 06:08:00;;;;;;;1.1;1.1;;;;;;;8.4;100.0;100860;;;;
2022/12/26 06:09:00;;;;;;;1.1;1.1;;;;;;;8.4;100.0;100860;;;;
2022/12/26 06:10:00;;;;;;;1.1;1.1;;;;;;;8.4;100.0;100860;;;;
2022/12/26 06:11:02;;;;;;;1.2;1.2;;;;;;;8.4;100.0;100860;;;;
2022/12/26 06:12:00;;;;;;;1.2;1.2;;;;;;;8.5;100.0;100870;;;;
2022/12/26 06:13:00;;;;;;;1.2;1.2;;;;;;;8.5;100.0;100870;;;;
2022/12/26 06:14:00;;;;;;;1.2;1.2;;;;;;;8.4;100.0;100870;;;;
2022/12/26 06:15:00;;;;;;;1.2;1.2;;;;;;;8.4;100.0;100870;;;;
2022/12/26 06:16:04;;;;;;;1.2;1.2;;;;;;;8.3;100.0;100870;;;;
2022/12/26 06:17:00;;;;;;;1.2;1.2;;;;;;;8.3;100.0;100870;;;;
2022/12/26 06:18:00;;;;;;;1.2;1.2;;;;;;;8.4;100.0;100870;;;;
2022/12/26 06:19:00;;;;;;;1.2;1.2;;;;;;;8.4;100.0;100870;;;;
2022/12/26 06:20:00;;;;;;;1.2;1.2;;;;;;;8.3;100.0;100870;;;;
2022/12/26 06:21:10;;;;;;;1.2;1.2;;;;;;;8.3;100.0;100870;;;;
2022/12/26 06:22:00;;;;;;;1.2;1.2;;;;;;;8.4;100.0;100870;;;;
2022/12/26 06:23:00;;;;;;;1.2;1.2;;;;;;;8.4;100.0;100870;;;;
2022/12/26 06:24:00;;;;;;;1.2;1.2;;;;;;;8.3;100.0;100880;;;;
2022/12/26 06:25:00;;;;;;;1.2;1.2;;;;;;;8.3;100.0;100880;;;;
2022/12/26 06:26:01;;;;;;;1.2;1.2;;;;;;;8.3;100.0;100880;;;;
2022/12/26 06:27:00;;;;;;;1.2;1.2;;;;;;;8.3;100.0;100880;;;;
2022/12/26 06:28:00;;;;;;;1.2;1.2;;;;;;;8.3;100.0;100890;;;;
2022/12/26 06:29:00;;;;;;;1.2;1.2;;;;;;;8.3;100.0;100890;;;;
2022/12/26 06:30:00;;;;;;;1.2;1.2;;;;;;;8.3;100.0;100890;;;;
2022/12/26 06:31:02;;;;;;;0.9;0.9;;;;;;;8.3;100.0;100890;;;;
2022/12/26 06:32:00;;;;;;;0.9;0.9;;;;;;;8.3;100.0;100890;;;;
2022/12/26 06:33:00;;;;;;;0.9;0.9;;;;;;;8.3;100.0;100890;;;;
2022/12/26 06:34:00;;;;;;;0.9;0.9;;;;;;;8.4;100.0;100900;;;;
2022/12/26 06:35:00;;;;;;;0.9;0.9;;;;;;;8.4;100.0;100900;;;;
2022/12/26 06:36:01;;;;;;;0.9;0.9;;;;;;;8.4;100.0;100900;;;;
2022/12/26 06:37:00;;;;;;;0.9;0.9;;;;;;;8.4;100.0;100900;;;;
2022/12/26 06:38:00;;;;;;;0.9;0.9;;;;;;;8.4;100.0;100900;;;;
2022/12/26 06:39:00;;;;;;;0.9;0.9;;;;;;;8.4;100.0;100900;;;;
2022/12/26 06:40:00;;;;;;;0.9;0.9;;;;;;;8.4;100.0;100900;;;;
2022/12/26 06:41:00;;;;;;;0.9;0.9;;;;;;;8.4;100.0;100900;;;;
2022/12/26 06:42:00;;;;;;;0.9;0.9;;;;;;;8.4;100.0;100910;;;;
2022/12/26 06:43:00;;;;;;;0.9;0.9;;;;;;;8.4;100.0;100910;;;;
2022/12/26 06:44:00;;;;;;;0.9;0.9;;;;;;;8.4;100.0;100910;;;;
2022/12/26 06:45:00;;;;;;;0.9;0.9;;;;;;;8.4;100.0;100910;;;;
2022/12/26 06:46:02;;;;;;;0.9;0.9;;;;;;;8.5;100.0;100910;;;;
2022/12/26 06:47:01;;;;;;;0.9;0.9;;;;;;;8.5;100.0;100910;;;;
2022/12/26 06:48:01;;;;;;;0.9;0.9;;;;;;;8.4;100.0;100920;;;;
2022/12/26 06:49:00;;;;;;;0.9;0.9;;;;;;;8.4;100.0;100920;;;;
2022/12/26 06:50:00;;;;;;;0.9;0.9;;;;;;;8.4;100.0;100920;;;;
2022/12/26 06:51:02;;;;;;;1.4;1.4;;;;;;;8.4;100.0;100920;;;;
2022/12/26 06:52:00;;;;;;;1.4;1.4;;;;;;;8.4;100.0;100920;;;;
2022/12/26 06:53:00;;;;;;;1.4;1.4;;;;;;;8.4;100.0;100920;;;;
2022/12/26 06:54:02;;;;;;;1.4;1.4;;;;;;;8.3;100.0;100920;;;;
2022/12/26 06:55:00;;;;;;;1.4;1.4;;;;;;;8.3;100.0;100920;;;;
2022/12/26 06:56:04;;;;;;;1.4;1.4;;;;;;;8.3;100.0;100930;;;;
2022/12/26 06:57:00;;;;;;;1.4;1.4;;;;;;;8.3;100.0;100930;;;;
2022/12/26 06:58:00;;;;;;;1.4;1.4;;;;;;;8.5;100.0;100920;;;;
2022/12/26 06:59:02;;;;;;;1.4;1.4;;;;;;;8.5;100.0;100920;;;;
2022/12/26 07:00:00;;;;;;;1.4;1.4;;;;;;;8.4;100.0;100920;;;;
2022/12/26 07:01:10;;;;;;;1.4;1.4;;;;;;;8.4;100.0;100920;;;;
2022/12/26 07:02:01;;;;;;;1.4;1.4;;;;;;;8.5;100.0;100920;;;;
2022/12/26 07:03:00;;;;;;;1.4;1.4;;;;;;;8.5;100.0;100920;;;;
2022/12/26 07:04:01;;;;;;;1.4;1.4;;;;;;;8.5;100.0;100920;;;;
2022/12/26 07:05:00;;;;;;;1.4;1.4;;;;;;;8.5;100.0;100920;;;;
2022/12/26 07:06:01;;;;;;;1.4;1.4;;;;;;;8.4;100.0;100910;;;;
2022/12/26 07:07:00;;;;;;;1.4;1.4;;;;;;;8.4;100.0;100910;;;;
2022/12/26 07:08:00;;;;;;;1.4;1.4;;;;;;;8.4;100.0;100910;;;;
2022/12/26 07:09:04;;;;;;;1.4;1.4;;;;;;;8.4;100.0;100910;;;;
2022/12/26 07:10:00;;;;;;;1.4;1.4;;;;;;;8.3;100.0;100910;;;;
2022/12/26 07:11:00;;;;;;;1.0;1.0;;;;;;;8.3;100.0;100910;;;;
2022/12/26 07:12:00;;;;;;;1.0;1.0;;;;;;;8.4;100.0;100910;;;;
2022/12/26 07:13:00;;;;;;;1.0;1.0;;;;;;;8.4;100.0;100910;;;;
2022/12/26 07:14:01;;;;;;;1.0;1.0;;;;;;;8.3;100.0;100930;;;;
2022/12/26 07:15:02;;;;;;;1.0;1.0;;;;;;;8.3;100.0;100930;;;;
2022/12/26 07:16:01;;;;;;;1.0;1.0;;;;;;;8.3;100.0;100930;;;;
2022/12/26 07:17:00;;;;;;;1.0;1.0;;;;;;;8.3;100.0;100930;;;;
2022/12/26 07:18:00;;;;;;;1.0;1.0;;;;;;;8.3;100.0;100930;;;;
2022/12/26 07:19:00;;;;;;;1.0;1.0;;;;;;;8.3;100.0;100930;;;;
2022/12/26 07:20:00;;;;;;;1.0;1.0;;;;;;;8.3;100.0;100930;;;;
2022/12/26 07:21:04;;;;;;;1.0;1.0;;;;;;;8.3;100.0;100930;;;;
2022/12/26 07:22:00;;;;;;;1.0;1.0;;;;;;;8.3;100.0;100920;;;;
2022/12/26 07:23:00;;;;;;;1.0;1.0;;;;;;;8.3;100.0;100920;;;;
2022/12/26 07:24:00;;;;;;;1.0;1.0;;;;;;;8.3;100.0;100920;;;;
2022/12/26 07:25:00;;;;;;;1.0;1.0;;;;;;;8.3;100.0;100920;;;;
2022/12/26 07:26:01;;;;;;;1.0;1.0;;;;;;;8.2;100.0;100930;;;;
2022/12/26 07:27:00;;;;;;;1.0;1.0;;;;;;;8.2;100.0;100930;;;;
2022/12/26 07:28:00;;;;;;;1.0;1.0;;;;;;;8.2;100.0;100930;;;;
2022/12/26 07:29:00;;;;;;;1.0;1.0;;;;;;;8.2;100.0;100930;;;;
2022/12/26 07:30:00;;;;;;;1.0;1.0;;;;;;;8.2;100.0;100930;;;;
2022/12/26 07:31:01;;;;;;;0.9;0.9;;;;;;;8.2;100.0;100930;;;;
2022/12/26 07:32:00;;;;;;;0.9;0.9;;;;;;;8.3;100.0;100940;;;;
2022/12/26 07:33:00;;;;;;;0.9;0.9;;;;;;;8.3;100.0;100940;;;;
2022/12/26 07:34:01;;;;;;;0.9;0.9;;;;;;;8.2;100.0;100940;;;;
2022/12/26 07:35:00;;;;;;;0.9;0.9;;;;;;;8.2;100.0;100940;;;;
2022/12/26 07:36:02;;;;;;;0.9;0.9;;;;;;;8.2;100.0;100940;;;;
2022/12/26 07:37:00;;;;;;;0.9;0.9;;;;;;;8.2;100.0;100940;;;;
2022/12/26 07:38:00;;;;;;;0.9;0.9;;;;;;;8.2;100.0;100950;;;;
2022/12/26 07:39:00;;;;;;;0.9;0.9;;;;;;;8.2;100.0;100950;;;;
2022/12/26 07:40:00;;;;;;;0.9;0.9;;;;;;;8.2;100.0;100940;;;;
2022/12/26 07:41:56;;;;;;;0.9;0.9;;;;;;;8.2;100.0;100940;;;;
2022/12/26 07:42:00;;;;;;;0.9;0.9;;;;;;;8.2;100.0;100940;;;;
2022/12/26 07:43:00;;;;;;;0.9;0.9;;;;;;;8.2;100.0;100940;;;;
2022/12/26 07:44:01;;;;;;;0.9;0.9;;;;;;;8.2;100.0;100940;;;;
2022/12/26 07:45:00;;;;;;;0.9;0.9;;;;;;;8.2;100.0;100940;;;;
2022/12/26 07:46:00;;;;;;;0.9;0.9;;;;;;;8.2;100.0;100940;;;;
2022/12/26 07:47:00;;;;;;;0.9;0.9;;;;;;;8.2;100.0;100940;;;;
2022/12/26 07:48:00;;;;;;;0.9;0.9;;;;;;;8.2;100.0;100940;;;;
2022/12/26 07:49:01;;;;;;;0.9;0.9;;;;;;;8.2;100.0;100940;;;;
2022/12/26 07:50:00;;;;;;;0.9;0.9;;;;;;;8.1;100.0;100940;;;;
2022/12/26 07:51:01;;;;;;;1.0;1.0;;;;;;;8.1;100.0;100940;;;;
2022/12/26 07:52:01;;;;;;;1.0;1.0;;;;;;;8.1;100.0;100950;;;;
2022/12/26 07:53:00;;;;;;;1.0;1.0;;;;;;;8.1;100.0;100950;;;;
2022/12/26 07:54:07;;;;;;;1.0;1.0;;;;;;;8.2;100.0;100950;;;;
2022/12/26 07:55:00;;;;;;;1.0;1.0;;;;;;;8.2;100.0;100950;;;;
2022/12/26 07:56:00;;;;;;;1.0;1.0;;;;;;;8.1;100.0;100940;;;;
2022/12/26 07:57:10;;;;;;;1.0;1.0;;;;;;;8.1;100.0;100940;;;;
2022/12/26 07:58:00;;;;;;;1.0;1.0;;;;;;;8.1;100.0;100940;;;;
2022/12/26 07:59:00;;;;;;;1.0;1.0;;;;;;;8.1;100.0;100940;;;;
2022/12/26 08:00:01;;;;;;;1.0;1.0;;;;;;;8.1;100.0;100930;;;;
2022/12/26 08:01:01;;;;;;;1.0;1.0;;;;;;;8.1;100.0;100930;;;;
2022/12/26 08:02:03;;;;;;;1.0;1.0;;;;;;;8.1;100.0;100940;;;;
2022/12/26 08:03:07;;;;;;;1.0;1.0;;;;;;;8.1;100.0;100940;;;;
2022/12/26 08:04:01;;;;;;;1.0;1.0;;;;;;;8.1;100.0;100940;;;;
2022/12/26 08:05:00;;;;;;;1.0;1.0;;;;;;;8.1;100.0;100940;;;;
2022/12/26 08:06:01;;;;;;;1.0;1.0;;;;;;;8.1;100.0;100950;;;;
2022/12/26 08:07:00;;;;;;;1.0;1.0;;;;;;;8.1;100.0;100950;;;;
2022/12/26 08:08:00;;;;;;;1.0;1.0;;;;;;;8.1;100.0;100950;;;;
2022/12/26 08:09:00;;;;;;;1.0;1.0;;;;;;;8.1;100.0;100950;;;;
2022/12/26 08:10:01;;;;;;;1.0;1.0;;;;;;;8.1;100.0;100950;;;;
2022/12/26 08:11:01;;;;;;;4.5;3.3;;;;;;;8.1;100.0;100950;;;;
2022/12/26 08:12:00;;;;;;;4.5;3.3;;;;;;;8.1;100.0;100960;;;;
2022/12/26 08:13:00;;;;;;;4.5;3.3;;;;;;;8.1;100.0;100960;;;;
2022/12/26 08:14:01;;;;;;;4.5;3.3;;;;;;;8.1;100.0;100950;;;;
2022/12/26 08:15:00;;;;;;;4.5;3.3;;;;;;;8.1;100.0;100950;;;;
2022/12/26 08:16:05;;;;;;;4.5;3.3;;;;;;;8.1;100.0;100960;;;;
2022/12/26 08:17:00;;;;;;;4.5;3.3;;;;;;;8.1;100.0;100960;;;;
2022/12/26 08:18:00;;;;;;;4.5;3.3;;;;;;;8.1;100.0;100960;;;;
2022/12/26 08:19:02;;;;;;;4.5;3.3;;;;;;;8.1;100.0;100960;;;;
2022/12/26 08:20:00;;;;;;;4.5;3.3;;;;;;;8.1;100.0;100950;;;;
2022/12/26 08:21:01;;;;;;;4.5;3.3;;;;;;;8.1;100.0;100950;;;;
2022/12/26 08:22:00;;;;;;;4.5;3.3;;;;;;;8.1;100.0;100950;;;;
2022/12/26 08:23:01;;;;;;;4.5;3.3;;;;;;;8.1;100.0;100950;;;;
2022/12/26 08:24:00;;;;;;;4.5;3.3;;;;;;;8.1;100.0;100950;;;;
2022/12/26 08:25:00;;;;;;;4.5;3.3;;;;;;;8.1;100.0;100950;;;;
2022/12/26 08:26:04;;;;;;;4.5;3.3;;;;;;;8.1;100.0;100950;;;;
2022/12/26 08:27:00;;;;;;;4.5;3.3;;;;;;;8.1;100.0;100950;;;;
2022/12/26 08:28:00;;;;;;;4.5;3.3;;;;;;;8.2;100.0;100950;;;;
2022/12/26 08:29:00;;;;;;;4.5;3.3;;;;;;;8.2;100.0;100950;;;;
2022/12/26 08:30:01;;;;;;;4.5;3.3;;;;;;;8.2;100.0;100950;;;;
2022/12/26 08:31:04;;;;;;;1.2;1.2;;;;;;;8.2;100.0;100950;;;;
2022/12/26 08:32:00;;;;;;;1.2;1.2;;;;;;;8.3;100.0;100950;;;;